Date,TemperatureHighF,TemperatureAvgF,TemperatureLowF,DewpointHighF,DewpointAvgF,DewpointLowF,HumidityHigh,HumidityAvg,HumidityLow,PressureMaxIn,PressureMinIn,WindSpeedMaxMPH,WindSpeedAvgMPH,GustSpeedMaxMPH,PrecipitationSumIn
2013-1-1,40.3,23.3,8.8,21.3,13.8,3.4,83,68,42,29.91,29.83,10,1,10,0.00
2013-1-2,29.0,22.4,15.8,20.6,15.7,10.5,85,75,59,30.08,29.87,9,2,9,0.00
2013-1-3,44.3,22.8,0.0,23.0,11.4,-4.2,87,63,32,30.95,29.96,143,2,143,23.50
2013-1-4,50.8,28.4,18.5,23.2,12.0,5.9,70,52,23,29.97,29.88,6,1,6,0.00
2013-1-5,41.6,29.3,17.6,20.9,16.2,9.8,80,59,41,30.04,29.91,16,2,16,0.00
2013-1-6,53.6,31.9,10.4,19.8,12.7,4.2,79,50,18,30.03,29.72,17,2,17,0.00
2013-1-7,46.3,29.4,20.7,25.5,18.7,15.0,82,66,38,29.84,29.57,8,1,8,0.00
2013-1-8,50.0,33.2,21.1,32.0,21.6,14.8,82,64,40,29.97,29.56,14,2,14,0.00
2013-1-9,60.8,43.7,19.1,28.2,20.5,13.4,80,43,22,29.97,29.71,13,2,13,0.00
2013-1-10,56.0,46.1,33.7,21.7,16.9,10.9,58,33,17,29.71,29.39,17,3,17,22.65
2013-1-11,33.3,16.3,4.0,22.9,9.2,-5.4,83,73,57,29.62,29.35,10,2,10,0.00
2013-1-12,13.0,7.7,4.0,3.2,-1.5,-6.8,73,66,60,29.89,29.61,12,2,12,0.00
2013-1-13,20.0,8.8,3.2,6.3,-0.2,-4.7,76,67,47,29.92,29.86,7,1,7,0.00
2013-1-14,27.2,11.8,4.1,4.7,-0.8,-3.9,75,58,35,29.94,29.84,10,2,10,0.00
2013-1-15,38.0,28.4,3.1,32.0,19.4,-6.5,100,69,53,29.85,29.63,54,2,54,23.50
2013-1-16,50.9,37.5,27.4,27.5,21.5,17.6,71,53,31,30.11,29.79,11,2,11,0.00
2013-1-17,51.5,34.6,23.2,26.0,19.6,16.2,79,57,33,30.17,29.88,8,1,8,0.00
2013-1-18,57.4,40.7,29.0,23.0,16.9,12.4,63,40,20,29.89,29.78,9,1,9,0.00
2013-1-19,51.3,33.8,22.1,23.1,19.4,16.3,81,58,28,30.06,29.82,10,1,10,0.00
2013-1-20,33.3,19.8,9.0,19.3,12.0,4.3,85,72,50,30.15,29.89,11,2,11,0.00
2013-1-21,19.1,10.8,6.8,12.0,6.1,2.4,86,81,71,30.07,29.86,7,0,7,0.00
2013-1-22,48.4,27.0,8.3,28.2,13.6,4.2,89,62,24,29.93,29.84,7,1,7,0.00
2013-1-23,24.7,18.8,11.2,15.7,11.4,6.8,85,73,63,30.06,29.90,8,1,8,0.00
2013-1-24,65.7,32.6,10.3,26.7,17.7,6.4,89,60,16,29.97,29.76,9,1,9,0.00
2013-1-25,50.8,31.3,20.5,28.2,20.7,15.9,85,67,37,29.97,29.86,6,1,6,0.00
2013-1-26,58.9,38.3,26.8,29.8,24.3,19.2,75,59,30,29.87,29.68,7,1,7,0.00
2013-1-27,53.3,35.2,24.1,33.6,25.1,20.8,87,68,43,29.68,29.56,8,1,8,0.00
2013-1-28,29.9,27.7,22.5,26.4,23.7,18.7,89,85,80,29.69,29.61,4,1,4,0.00
2013-1-29,41.9,23.0,8.6,21.3,13.5,0.5,87,69,39,29.82,29.58,10,1,10,0.00
2013-1-30,24.7,13.8,-0.2,16.4,7.3,-4.9,87,76,59,29.79,29.60,8,1,8,0.00
2013-1-31,14.4,8.7,5.2,9.1,1.4,-2.5,87,72,55,29.96,29.69,9,2,9,0.00
2013-2-1,45.7,31.8,16.9,30.5,25.1,14.0,91,77,52,29.96,29.80,7,1,7,0.00
2013-2-2,82.4,34.1,25.0,82.4,21.6,18.5,100,61,38,30.16,29.96,13,2,13,22.48
2013-2-3,55.8,37.3,22.9,25.0,19.1,11.8,81,52,20,30.02,29.71,10,1,10,0.00
2013-2-4,54.7,34.8,23.8,25.8,21.3,17.7,79,60,29,29.80,29.67,12,1,12,0.00
2013-2-5,53.8,38.2,30.2,29.1,25.1,23.0,77,60,34,29.86,29.68,9,1,9,0.00
2013-2-6,54.4,35.0,25.2,29.3,23.0,19.6,80,63,36,29.91,29.65,7,1,7,0.00
2013-2-7,53.5,34.7,25.0,22.5,18.5,14.2,77,55,24,29.97,29.83,8,1,10,0.00
2013-2-8,53.5,34.0,23.8,23.2,18.5,13.6,81,55,25,29.83,29.71,9,1,9,0.00
2013-2-9,45.7,30.1,23.6,22.0,18.9,16.0,84,64,36,29.71,29.57,10,1,10,0.00
2013-2-10,26.3,23.0,15.1,21.8,16.6,7.7,86,76,62,29.83,29.55,15,3,15,0.00
2013-2-11,41.8,20.2,6.5,17.7,9.2,1.7,82,64,32,29.87,29.78,9,1,9,0.00
2013-2-12,48.2,32.0,18.4,21.2,16.1,7.0,65,53,30,29.84,29.76,7,2,7,0.00
2013-2-13,47.2,34.8,27.2,29.8,22.9,18.0,80,62,39,29.84,29.65,13,2,13,0.00
2013-2-14,37.6,20.9,3.6,37.6,13.4,-1.0,100,73,51,30.08,29.83,63,2,63,23.50
2013-2-15,34.9,21.6,3.1,19.8,10.7,-1.4,87,65,40,30.13,29.89,9,1,9,0.00
2013-2-16,54.4,38.9,26.3,28.5,24.5,19.8,79,58,34,29.89,29.71,10,2,10,0.00
2013-2-17,60.3,36.9,28.4,28.5,22.8,18.9,75,59,23,29.70,29.44,8,2,8,0.00
2013-2-18,33.8,24.6,12.4,21.3,14.4,5.4,76,65,49,29.94,29.65,15,3,15,0.00
2013-2-19,31.3,16.5,1.8,15.6,8.7,-3.2,81,72,47,29.95,29.78,14,3,14,0.00
2013-2-20,33.5,23.4,17.3,16.4,14.1,10.3,80,68,47,29.78,29.66,11,2,11,0.00
2013-2-21,27.7,21.1,17.8,21.1,16.8,14.6,89,83,74,29.79,29.72,6,1,6,0.00
2013-2-22,45.7,26.4,16.9,27.3,15.4,10.4,87,66,39,29.76,29.63,9,1,9,0.00
2013-2-23,46.4,30.3,15.3,25.4,14.9,6.7,78,55,29,29.69,29.53,8,1,8,0.00
2013-2-24,31.3,27.0,16.4,26.5,20.8,11.7,85,77,69,29.94,29.69,6,1,6,0.00
2013-2-25,49.3,28.8,8.6,16.2,9.8,2.2,83,50,17,29.93,29.68,10,2,10,0.00
2013-2-26,42.7,29.9,19.4,28.2,20.8,11.0,79,69,50,29.93,29.68,9,2,9,0.00
2013-2-27,41.9,29.0,18.4,19.9,16.7,12.4,80,61,39,30.04,29.93,10,1,10,0.00
2013-2-28,46.1,28.0,13.7,27.7,17.8,9.0,84,67,42,30.05,29.98,8,1,8,0.00
2013-3-1,49.3,33.6,18.4,29.4,17.3,7.8,85,56,21,30.10,30.01,6,1,6,0.00
2013-3-2,58.0,42.5,29.7,33.7,28.2,24.0,85,60,34,30.02,29.79,8,1,8,0.00
2013-3-3,57.2,43.3,29.5,31.2,27.6,19.9,78,56,34,29.79,29.46,13,2,13,0.00
2013-3-4,34.0,23.2,15.1,20.3,10.2,5.1,78,58,36,29.98,29.60,22,4,22,0.00
2013-3-5,40.5,21.0,7.7,14.0,8.4,0.2,74,59,31,30.11,29.97,10,2,10,0.00
2013-3-6,48.8,30.1,11.3,22.5,16.2,6.0,82,59,33,29.98,29.68,11,2,11,0.00
2013-3-7,65.0,38.9,26.1,32.8,23.5,19.9,79,57,25,29.98,29.68,9,1,9,0.00
2013-3-8,40.7,32.7,25.6,28.7,24.7,20.4,84,73,61,29.97,29.72,10,2,10,0.00
2013-3-9,40.3,32.3,25.0,26.8,21.2,13.4,87,65,40,29.95,29.65,19,3,19,0.00
2013-3-10,46.4,30.4,17.3,17.0,8.5,-9.0,77,46,12,30.01,29.85,11,2,11,0.00
2013-3-11,49.5,35.8,26.6,27.0,19.4,11.4,71,52,29,29.93,29.76,10,2,10,0.00
2013-3-12,40.0,28.4,19.8,13.1,5.9,2.4,57,40,22,30.07,29.95,10,2,10,0.00
2013-3-13,65.9,45.4,25.9,30.8,23.1,6.5,60,43,26,30.01,29.93,7,1,7,0.00
2013-3-14,87.8,56.6,34.4,87.8,29.0,25.5,100,38,19,30.98,29.89,9,1,9,22.54
2013-3-15,69.3,49.9,33.3,32.0,27.1,23.1,76,44,19,29.90,29.74,14,2,15,0.00
2013-3-16,34.7,29.4,25.2,31.3,25.6,20.8,91,86,78,29.93,29.74,7,1,7,0.00
2013-3-17,52.7,33.3,23.9,36.2,26.0,14.8,91,76,39,29.74,29.29,17,2,17,0.00
2013-3-18,40.3,28.5,18.5,16.2,9.3,-3.0,67,47,20,29.79,29.60,13,2,13,0.00
2013-3-19,43.2,28.1,14.6,18.8,13.0,4.2,72,54,31,30.15,29.77,10,2,10,0.00
2013-3-20,49.3,29.8,10.3,18.3,11.3,3.4,74,49,23,30.14,29.66,13,2,13,0.00
2013-3-21,42.7,30.4,19.4,24.4,18.1,12.1,76,60,40,29.66,29.52,12,2,12,0.00
2013-3-29,93.2,53.0,36.9,93.2,29.9,25.7,100,44,25,29.95,29.87,8,2,8,22.65
2013-3-30,61.4,42.9,30.8,38.3,31.8,24.9,81,66,31,30.01,29.93,15,2,15,0.00
2013-3-31,55.1,37.3,26.6,33.1,25.6,19.4,85,65,41,30.02,29.82,10,2,10,0.00
2013-4-1,52.4,34.9,21.6,29.6,23.0,17.5,88,65,39,30.03,29.98,10,2,10,0.00
2013-4-2,59.0,38.5,22.9,32.0,22.8,18.0,100,57,27,31.08,29.95,10,2,10,23.37
2013-4-3,74.7,48.8,29.5,35.3,27.2,0.0,73,47,16,30.63,29.86,50,2,50,22.04
2013-4-4,50.9,40.2,29.5,28.7,24.7,19.0,85,56,38,30.03,29.88,12,2,12,0.00
2013-4-5,69.7,47.1,30.8,38.8,30.3,18.9,73,54,29,29.87,29.54,8,1,10,0.00
2013-4-6,98.6,50.9,36.7,98.6,31.3,25.7,100,50,27,31.23,29.64,12,2,12,22.63
2013-4-7,98.6,44.0,34.6,44.9,35.0,0.0,89,72,37,29.72,29.54,8,1,8,22.82
2013-4-8,98.6,29.1,15.3,38.6,25.0,0.0,93,86,75,29.96,29.54,1,0,1,22.82
2013-4-9,98.6,13.8,11.9,9.2,8.2,0.0,85,80,74,30.11,0.00,0,0,0,22.82
2013-4-10,84.2,20.7,9.5,84.2,13.7,5.1,100,74,60,30.83,29.77,11,1,11,22.57
2013-4-11,39.6,23.0,6.5,28.6,16.7,2.7,89,77,54,29.77,29.63,10,1,10,0.00
2013-4-12,42.1,31.6,20.0,32.0,23.9,16.8,100,73,59,30.49,29.71,9,1,9,21.06
2013-4-13,49.7,31.4,18.7,32.3,24.5,0.0,91,76,49,30.14,29.29,9,2,9,20.74
2013-4-14,39.6,31.6,19.3,32.6,22.4,0.0,92,69,51,30.12,29.31,14,2,14,20.74
2013-4-15,42.5,26.3,16.2,20.1,14.2,8.3,72,61,36,29.93,29.63,10,2,10,0.00
2013-4-16,28.3,23.2,17.8,20.6,15.8,10.9,82,73,63,30.01,29.89,8,1,8,0.00
2013-4-17,74.1,25.4,20.5,74.1,19.4,15.9,100,78,71,30.69,29.97,10,1,10,23.50
2013-4-18,37.8,26.6,18.2,17.7,13.8,9.9,84,61,39,29.98,29.90,12,2,12,0.00
2013-4-19,38.9,33.5,31.1,29.9,28.0,0.0,89,80,68,29.85,29.80,52,2,52,22.28
2013-4-20,50.4,38.5,28.8,36.6,31.9,25.4,91,78,55,29.84,29.75,12,1,12,0.00
2013-4-21,93.2,36.8,29.3,93.2,32.0,26.5,100,83,57,30.01,29.80,5,1,5,22.56
2013-4-22,33.1,24.9,12.4,26.6,18.7,7.7,100,78,58,30.18,29.94,11,0,11,23.50
2013-4-23,47.5,23.9,8.3,32.0,14.3,4.2,100,68,32,31.81,29.94,10,1,10,23.50
2013-4-24,37.8,28.6,23.8,32.0,19.4,16.6,100,69,51,32.16,29.89,8,2,8,23.47
2013-4-25,37.8,35.4,33.8,26.2,25.2,24.5,71,66,60,29.89,29.85,3,1,5,23.47
2013-4-26,67.5,47.9,31.3,36.0,28.6,23.3,73,51,24,30.04,29.89,7,2,7,22.59
2013-4-27,42.3,38.8,36.5,28.6,27.2,26.1,67,63,58,30.02,29.95,5,2,5,0.00
2013-4-30,96.8,36.1,31.5,96.8,26.4,21.3,100,68,61,30.02,0.04,8,1,8,23.50
2013-5-1,44.5,34.5,25.6,22.7,17.5,10.7,70,51,30,30.40,30.02,12,2,12,23.50
2013-5-2,49.3,36.3,22.3,27.0,19.2,12.5,73,52,28,30.42,30.21,9,1,9,23.50
2013-5-3,61.6,43.0,27.0,28.6,21.7,16.6,68,45,23,30.22,30.01,11,2,11,23.50
2013-5-4,58.9,41.6,26.3,26.9,19.6,15.9,73,45,23,30.14,30.05,12,2,12,23.50
2013-5-5,59.9,43.3,25.9,26.8,21.5,15.5,67,45,24,30.14,30.01,10,2,10,23.50
2013-5-6,69.5,49.5,30.1,33.1,27.4,21.6,73,46,23,30.03,29.90,12,2,12,23.50
2013-5-7,72.9,54.0,34.7,45.5,35.2,25.7,72,52,28,29.92,29.77,8,2,8,23.50
2013-5-8,70.4,55.5,37.4,44.9,37.7,32.4,84,54,32,30.04,29.83,13,2,13,23.50
2013-5-9,64.4,49.1,37.8,45.2,37.8,32.2,83,66,47,30.07,30.02,10,2,10,0.00
2013-5-10,75.2,58.6,42.5,47.4,37.4,27.5,83,50,22,30.22,30.02,15,2,15,23.50
2013-5-11,60.5,46.4,29.9,36.5,29.9,23.6,79,55,33,30.25,30.06,12,2,12,23.50
2013-5-12,73.3,56.2,34.2,42.7,36.4,27.5,83,51,28,30.08,29.90,11,2,11,23.50
2013-5-13,89.5,70.4,55.6,50.4,42.7,38.0,62,39,19,29.94,29.75,9,2,9,23.50
2013-5-14,85.0,66.9,46.6,50.5,41.7,32.6,61,41,28,29.88,29.70,16,2,16,23.50
2013-5-15,71.5,58.8,39.8,43.7,38.6,31.7,76,49,33,29.95,29.80,13,3,13,23.50
2013-5-16,72.0,59.8,51.1,57.1,48.9,40.2,89,69,42,29.82,29.72,10,2,11,23.50
2013-5-17,70.9,60.5,45.5,57.6,50.5,42.5,91,71,51,29.80,29.70,13,2,13,23.50
2013-5-18,74.3,55.6,48.4,57.6,49.8,43.7,92,81,55,29.80,29.70,10,1,10,23.50
2013-5-19,58.0,52.2,46.3,51.3,48.0,41.8,92,86,75,29.72,29.62,9,1,9,23.50
2013-5-20,53.5,47.3,42.1,45.2,41.3,38.5,88,80,69,29.80,29.56,14,4,14,23.50
2013-5-21,49.7,44.3,40.9,41.2,38.8,37.1,90,81,69,29.87,29.77,11,2,11,23.50
2013-5-22,51.5,46.4,41.9,44.4,41.3,38.3,88,82,73,30.05,29.84,10,1,10,23.50
2013-5-23,61.0,53.5,44.3,45.3,41.4,33.5,86,65,50,30.06,29.89,21,6,21,23.50
2013-5-24,77.4,62.3,49.3,55.9,49.9,44.2,84,65,37,29.94,29.76,13,3,13,23.50
2013-5-25,76.0,63.8,47.2,57.0,51.9,43.8,89,67,42,29.91,29.77,15,3,15,23.50
2013-5-26,71.5,59.2,49.9,59.4,53.7,47.1,92,83,60,29.92,29.76,14,2,14,23.50
2013-5-27,73.6,57.7,46.3,60.9,53.1,43.0,94,86,54,29.87,29.62,12,2,12,23.50
2013-5-28,71.3,56.8,41.0,51.7,44.0,36.5,91,66,33,29.73,29.61,9,2,9,23.50
2013-5-29,67.0,55.8,47.2,54.4,49.1,45.0,92,80,55,29.67,29.51,15,3,15,0.13
2013-5-30,49.0,48.1,47.5,40.0,39.3,38.6,73,72,69,29.49,29.44,10,4,10,23.50
2013-5-31,53.1,46.5,43.4,41.3,39.3,37.7,88,76,62,29.84,29.46,14,3,14,23.50
2013-6-1,60.7,53.8,39.4,41.3,38.6,33.6,87,58,43,30.06,29.84,8,2,8,23.50
2013-6-2,68.6,54.4,36.7,50.6,43.2,33.0,88,68,48,30.05,29.73,16,3,16,23.50
2013-6-3,74.2,57.8,43.7,54.4,44.5,35.9,91,65,29,29.86,29.54,11,2,11,23.50
2013-6-4,62.8,53.2,45.4,41.6,36.8,31.5,70,54,39,30.08,29.85,11,2,11,23.50
2013-6-5,58.0,49.3,42.1,42.1,38.8,34.9,78,67,53,30.08,30.01,7,1,7,23.50
2013-6-6,68.6,54.1,35.6,49.1,41.8,32.4,90,65,44,30.02,29.96,12,2,12,23.50
2013-6-7,76.0,63.6,44.1,54.8,47.8,38.7,85,59,35,29.99,29.71,13,2,13,23.50
2013-6-8,65.7,61.7,54.7,51.9,49.3,46.7,83,65,54,29.73,29.70,6,2,6,0.19
2013-6-10,80.3,71.2,61.7,59.6,56.1,53.4,77,60,47,29.86,29.77,8,2,8,0.19
2013-6-11,73.1,66.0,58.0,60.2,57.3,52.0,86,74,57,29.91,29.79,12,2,12,0.52
2013-6-12,62.8,58.0,53.6,53.5,50.8,48.7,92,77,67,30.08,29.96,8,2,8,0.19
2013-6-13,74.0,62.5,46.8,56.8,50.6,43.7,91,66,44,30.09,29.80,14,3,14,0.19
2013-6-14,81.0,66.6,55.3,55.3,50.5,44.3,82,58,33,29.97,29.71,9,2,9,0.19
2013-6-15,73.6,61.6,50.4,47.3,43.8,36.3,78,54,29,30.00,29.93,13,2,13,0.19
2013-6-16,78.8,62.9,47.9,59.4,50.2,42.4,83,65,44,30.03,29.91,12,2,12,0.19
2013-6-17,72.0,59.3,51.1,56.5,50.4,45.9,90,73,47,30.07,30.01,8,1,8,0.63
2013-6-18,78.1,64.8,47.9,60.0,52.6,44.5,90,67,44,30.02,29.87,13,3,13,0.19
2013-6-19,79.6,75.1,57.2,62.0,58.3,48.5,80,57,39,29.85,29.65,15,4,15,0.19
2013-6-20,82.6,73.1,59.0,60.7,45.9,36.7,76,41,22,29.89,29.67,10,2,10,0.19
2013-6-21,61.6,59.3,57.2,58.8,54.7,51.7,93,85,76,29.89,29.83,6,0,6,0.11
2013-6-26,87.1,75.3,59.8,59.3,55.2,46.8,76,51,28,30.02,29.90,9,2,9,0.04
2013-6-27,84.2,71.1,54.7,59.0,53.5,48.5,82,56,35,30.13,30.01,9,2,9,0.00
2013-6-28,85.7,70.1,52.9,54.0,49.9,46.1,80,52,28,30.17,30.09,13,2,13,0.00
2013-6-29,78.7,65.4,51.8,56.0,49.3,42.6,86,59,39,30.12,30.06,10,2,10,0.00
2013-6-30,81.4,65.2,48.2,54.2,48.0,42.1,81,56,37,30.14,30.08,10,2,10,0.00
2013-7-1,77.6,66.1,51.7,54.3,50.4,44.3,83,59,43,30.16,30.12,14,2,14,0.00
2013-7-2,81.0,67.8,50.8,55.5,49.0,43.3,79,54,34,30.15,30.02,9,2,9,0.00
2013-7-3,85.9,71.3,55.3,52.5,48.2,44.8,71,47,25,30.02,29.83,15,2,15,0.72
2013-7-4,83.2,68.5,58.9,62.9,54.1,44.5,86,61,37,29.93,29.81,8,1,8,0.24
2013-7-5,81.2,69.2,61.7,62.5,56.9,53.4,90,67,41,29.86,29.75,13,2,13,0.65
2013-7-6,85.9,71.2,55.4,64.1,56.8,52.4,93,64,39,29.93,29.75,11,1,11,0.00
2013-7-7,80.5,68.6,59.4,63.0,57.7,52.0,88,69,48,30.06,29.89,12,2,12,0.09
2013-7-8,81.9,68.3,58.9,64.4,57.4,52.0,87,71,40,30.03,29.89,16,2,16,0.95
2013-7-9,83.7,68.4,53.1,61.7,54.8,49.6,91,65,41,30.14,29.94,10,2,10,0.09
2013-7-10,87.5,68.2,51.8,66.2,55.4,47.8,89,66,34,30.14,29.93,9,2,9,0.13
2013-7-11,94.7,80.5,63.0,65.5,56.6,40.9,73,47,16,29.97,29.76,18,3,18,0.00
2013-7-12,89.6,75.7,61.0,61.3,56.0,51.7,89,53,30,29.96,29.72,13,2,13,0.20
2013-7-13,85.5,71.5,56.5,70.1,60.9,53.6,92,71,47,30.02,29.91,11,2,11,0.13
2013-7-14,70.2,63.8,58.1,60.9,57.7,54.8,91,81,72,30.15,30.02,6,1,6,0.00
2013-7-15,82.4,71.2,58.0,65.4,59.7,51.4,92,69,50,30.13,29.94,13,2,13,0.02
2013-7-16,90.4,77.0,62.1,57.3,51.4,45.5,68,42,28,30.11,29.98,12,3,12,0.00
2013-7-17,87.1,76.4,62.3,60.3,55.4,52.4,72,50,34,30.11,30.00,13,3,13,0.00
2013-7-18,94.7,78.6,64.4,62.6,55.8,50.5,67,47,30,30.04,29.95,13,2,13,0.00
2013-7-19,84.4,69.8,58.1,62.0,56.4,48.6,91,65,34,30.09,29.91,12,2,12,0.69
2013-7-20,84.8,69.9,61.2,65.2,59.9,54.6,91,72,49,29.97,29.85,15,2,15,0.22
2013-7-21,88.9,73.4,56.0,61.0,56.7,50.1,91,60,34,29.93,29.76,11,2,11,0.15
2013-7-22,85.1,70.6,57.4,58.5,53.2,42.4,88,59,24,29.96,29.84,12,2,12,0.32
2013-7-23,81.4,67.9,54.4,63.3,57.4,51.2,91,71,50,30.03,29.89,8,2,8,0.04
2013-7-24,83.5,70.8,56.0,60.1,54.2,49.0,85,59,37,30.08,29.98,12,2,12,0.00
2013-7-25,81.4,67.4,55.4,58.7,53.1,48.2,89,62,39,30.14,29.91,11,2,11,0.35
2013-7-26,69.1,59.7,49.3,51.3,47.6,43.0,90,66,51,30.19,30.10,11,2,11,0.15
2013-7-27,68.9,57.6,43.0,52.3,46.9,39.2,89,69,53,30.14,29.93,15,2,15,0.00
2013-7-28,74.0,61.5,48.2,60.9,53.9,45.3,90,77,57,29.93,29.83,13,2,13,0.02
2013-7-29,82.3,67.2,52.7,58.1,53.8,49.4,91,65,40,30.04,29.84,11,2,11,0.00
2013-7-30,86.0,67.6,52.7,60.9,55.2,47.7,86,67,28,30.15,29.98,11,2,11,0.00
2013-7-31,83.9,66.7,51.3,57.1,51.4,45.3,83,61,34,30.16,30.11,12,2,12,0.02
2013-8-14,70.6,63.7,55.8,60.7,57.0,52.6,89,79,64,30.03,29.98,5,1,5,0.02
2013-8-15,80.6,64.2,54.4,61.6,55.9,48.4,91,76,49,30.06,29.95,9,2,9,0.02
2013-8-16,84.2,68.6,54.0,62.3,57.3,51.1,91,70,44,30.05,29.99,10,2,10,0.02
2013-8-17,97.2,74.0,58.0,62.5,56.3,44.9,85,58,24,30.00,29.91,11,2,11,0.02
2013-8-18,81.2,69.8,58.5,63.8,58.2,52.4,81,68,42,30.00,29.91,12,1,12,0.04
2013-8-19,87.1,71.9,55.4,58.8,53.6,46.6,85,57,26,29.98,29.88,9,2,9,0.02
2013-8-20,95.8,69.4,58.3,65.1,56.3,48.6,84,67,24,29.94,29.87,10,1,10,0.52
2013-8-21,79.2,65.7,55.4,62.2,53.4,50.5,85,67,40,30.05,29.94,10,1,10,0.50
2013-8-22,81.2,67.8,52.7,62.2,56.2,48.3,86,68,46,30.11,30.00,12,2,12,0.50
2013-8-23,86.6,73.3,59.6,66.3,59.5,54.1,84,64,41,30.00,29.80,13,2,13,0.50
2013-8-24,93.6,76.7,61.4,57.9,52.9,47.7,73,47,24,29.93,29.80,11,2,11,0.50
2013-8-25,89.8,72.7,58.3,59.9,55.7,50.5,77,58,33,30.00,29.93,11,2,11,0.50
2013-8-26,89.6,75.4,63.4,58.4,54.9,47.8,75,52,25,29.96,29.89,10,1,10,0.50
2013-8-27,97.2,78.6,61.6,61.2,54.5,49.5,71,47,22,29.97,29.89,12,2,12,0.50
2013-8-28,85.9,74.1,59.4,67.7,61.4,49.1,86,66,37,30.01,29.92,14,2,14,0.50
2013-8-29,97.9,79.3,61.6,56.8,51.3,44.3,69,39,23,30.06,29.91,6,1,7,0.50
2013-8-30,93.1,71.8,58.1,64.7,56.6,50.2,82,61,32,30.07,29.91,16,2,16,0.50
2013-8-31,86.6,71.3,51.5,59.6,49.8,40.2,70,49,29,30.05,29.88,13,2,13,0.50
2013-9-1,84.1,63.3,46.3,49.6,44.1,37.5,74,52,30,30.07,30.01,8,2,8,0.50
2013-9-2,91.6,71.2,48.8,57.7,49.1,42.2,80,50,26,30.03,29.91,12,2,12,0.50
2013-9-3,94.1,77.0,63.5,59.7,56.3,51.9,74,50,30,30.01,29.90,10,2,10,0.00
2013-9-4,90.5,72.6,59.2,65.6,59.0,53.2,84,65,39,30.08,30.00,7,1,7,0.02
2013-9-5,88.2,73.3,60.1,64.4,60.2,56.5,88,66,42,30.09,29.97,8,2,8,0.00
2013-9-6,86.2,70.2,65.3,59.0,56.8,54.9,77,63,41,29.97,29.93,3,1,3,0.00
2013-9-7,90.5,90.5,90.5,58.3,58.3,58.3,34,34,34,29.99,29.99,3,3,3,0.00
2013-10-2,90.5,90.5,90.5,58.3,58.3,58.3,34,34,34,29.99,29.99,3,3,3,0.00
2013-10-21,90.5,47.4,43.2,58.3,32.5,24.9,61,56,34,29.99,29.84,3,0,3,11.39
2013-10-22,50.4,43.4,35.8,37.1,28.0,16.9,61,54,45,29.98,29.89,1,0,1,0.04
2013-10-23,49.0,42.3,35.3,35.7,27.6,16.5,61,56,43,30.12,29.90,4,0,4,0.00
2013-10-24,48.6,37.2,30.8,35.6,20.4,11.9,62,51,36,30.14,30.05,1,0,1,0.00
2013-10-25,76.9,51.4,36.2,45.4,31.2,16.9,60,47,29,30.08,29.93,3,0,3,0.02
2013-10-26,66.8,44.3,29.7,38.4,28.1,16.5,63,53,32,30.13,29.88,1,0,1,0.00
2013-10-27,74.0,46.1,33.1,39.8,28.9,16.4,62,52,25,30.00,29.75,1,0,1,0.00
2013-10-28,32.9,24.9,22.9,17.1,8.7,6.8,55,50,48,30.11,30.00,1,0,1,0.00
2013-10-29,31.1,27.0,23.2,13.3,9.5,6.9,50,47,43,30.05,29.80,0,0,0,0.00
2013-10-30,42.8,32.6,26.3,21.0,10.6,7.9,46,40,29,29.81,29.63,1,0,1,0.17
2013-10-31,49.3,39.9,27.7,31.6,24.8,7.1,64,55,37,29.66,29.56,2,0,2,0.00
2013-11-1,48.8,39.0,29.5,30.7,22.8,11.5,64,52,37,30.00,29.66,9,0,9,0.15
2013-11-2,60.3,44.3,28.6,31.9,25.4,17.4,64,49,29,30.01,29.51,4,0,4,0.00
2013-11-3,54.7,43.1,34.2,32.2,26.6,20.6,62,53,30,29.73,29.49,3,0,3,0.00
2013-11-4,52.2,34.0,26.6,26.4,17.6,9.1,63,52,29,29.94,29.72,1,0,1,0.00
2013-11-5,30.8,24.9,16.0,18.7,9.9,3.8,62,53,44,29.98,29.91,0,0,0,0.04
2013-11-6,48.4,30.4,17.3,31.1,15.8,5.7,65,54,37,30.13,29.90,3,0,3,0.26
2013-11-7,54.2,34.3,22.7,35.1,18.4,5.9,60,52,42,30.16,29.67,1,0,1,0.04
2013-11-8,36.7,36.0,35.6,21.2,20.2,18.8,53,52,50,29.67,29.66,0,0,0,0.00
2013-11-11,18.4,15.9,14.9,6.3,3.7,1.6,61,58,51,30.38,30.34,0,0,0,0.00
2013-11-12,59.0,38.5,15.8,34.8,18.7,2.7,64,46,24,30.37,30.05,2,0,2,0.04
2013-11-13,64.1,45.4,34.6,36.5,27.4,16.3,60,50,28,30.05,29.89,1,0,1,0.00
2013-11-14,55.8,42.0,30.6,34.5,21.8,10.5,60,45,33,29.93,29.74,1,0,1,0.04
2013-11-15,64.3,41.6,27.5,34.7,23.9,5.5,60,50,32,29.47,29.30,3,0,3,0.00
2013-11-16,46.1,34.6,26.3,27.5,18.7,4.6,60,52,39,29.32,29.23,0,0,0,0.00
2013-11-17,44.5,32.4,23.4,26.6,16.2,5.9,63,52,36,29.90,29.32,8,0,8,0.00
2013-11-18,56.5,35.0,22.9,26.3,18.8,11.9,64,53,30,29.91,29.72,1,0,1,0.00
2013-11-19,61.6,49.4,34.9,29.6,25.0,21.4,60,40,27,29.73,29.51,7,0,7,0.00
2013-11-20,54.7,29.2,12.1,34.0,15.9,2.9,67,58,40,30.06,29.62,7,0,7,0.00
2013-11-21,19.1,12.3,5.0,8.4,2.7,-3.7,70,65,59,30.30,30.05,2,0,2,0.00
2013-11-22,47.9,24.9,7.4,8.2,1.3,-20.1,66,39,12,30.37,30.23,4,0,4,0.04
2013-11-23,50.8,27.5,11.2,19.0,11.7,1.8,67,53,25,30.37,30.09,1,0,1,0.00
2013-11-24,70.2,42.8,32.0,33.7,19.6,5.1,56,40,20,30.09,29.80,6,0,6,0.22
2013-11-25,44.3,34.3,28.4,25.2,18.7,13.1,62,53,40,30.12,29.94,5,0,5,0.00
2013-11-26,42.1,27.2,19.4,23.1,12.9,3.5,64,55,42,30.21,29.99,8,0,8,0.00
2013-11-27,58.9,37.3,22.7,26.0,17.0,3.9,63,46,21,30.01,29.83,6,0,6,0.00
2013-11-28,50.6,28.3,17.6,25.1,14.3,6.0,65,56,31,30.07,29.90,0,0,0,0.00
2013-11-29,63.0,40.5,30.8,31.4,21.8,16.8,61,49,23,29.95,29.88,4,0,4,0.00
2013-11-30,49.0,35.5,27.4,28.9,22.0,16.1,62,58,44,30.01,29.93,0,0,0,0.00
2013-12-1,58.7,40.2,30.2,32.4,23.7,14.7,61,52,33,29.95,29.58,1,0,1,0.00
2013-12-2,52.7,39.6,27.9,33.6,20.9,-2.0,61,48,23,29.58,29.44,6,0,6,0.00
2013-12-3,27.9,16.8,8.3,8.4,3.6,-0.4,69,57,29,29.70,29.47,1,0,1,0.00
2013-12-4,8.3,4.1,-2.3,0.6,-4.8,-10.9,70,66,60,29.87,29.64,4,0,4,0.00
2013-12-5,21.1,-2.2,-14.8,-0.6,-11.7,-20.9,74,64,34,30.02,29.85,1,0,1,0.00
2013-12-6,13.3,-9.6,-16.9,-1.5,-16.9,-23.2,74,70,47,30.14,30.01,2,0,2,0.00
2013-12-7,6.8,-10.3,-19.3,-7.5,-17.6,-25.6,74,70,48,30.12,29.75,0,0,0,0.00
2013-12-8,16.9,3.9,-4.7,3.5,-5.5,-11.4,73,65,41,29.84,29.65,8,0,8,0.00
2013-12-9,23.9,13.0,-4.5,12.7,1.0,-12.0,72,60,31,29.83,29.62,10,0,10,0.00
2013-12-10,40.0,18.3,-0.4,20.7,8.1,-7.9,71,64,43,30.07,29.72,7,0,7,0.00
2013-12-11,38.2,16.9,-2.5,19.6,4.2,-9.3,72,58,36,30.08,29.99,1,0,1,0.00
2013-12-12,49.9,29.1,14.2,24.3,14.8,5.3,68,56,31,30.02,29.75,0,0,0,0.00
2013-12-13,40.3,30.1,22.0,24.5,16.9,8.4,64,57,49,29.94,29.73,2,0,2,0.00
2013-12-14,50.6,35.3,25.2,27.2,21.3,8.3,63,57,38,30.00,29.88,1,0,1,0.00
2013-12-15,51.7,42.4,36.5,26.3,24.3,21.3,62,49,33,29.88,29.78,7,0,7,0.00
2013-12-16,52.6,39.0,26.5,29.2,22.9,14.2,63,53,38,30.01,29.80,7,0,7,0.00
2013-12-17,54.4,36.9,20.9,29.9,19.9,6.1,65,51,30,30.07,29.71,2,0,2,0.00
2013-12-18,67.9,40.9,24.1,31.1,21.0,10.5,63,47,20,29.72,29.64,1,0,1,0.00
2013-12-19,25.6,12.3,-1.1,10.7,-2.1,-8.2,72,54,32,29.82,29.68,0,0,0,0.00
2013-12-20,34.6,12.0,-3.4,22.2,2.3,-9.9,73,65,56,29.78,29.52,0,0,0,0.00
2013-12-21,26.6,14.8,6.8,15.4,3.7,-2.6,67,61,54,29.75,29.50,0,0,0,0.00
2013-12-22,30.1,7.6,-2.2,17.4,-1.6,-9.0,72,66,48,30.06,29.74,0,0,0,0.00
2013-12-23,31.9,10.6,-13.1,11.2,-2.5,-18.9,75,58,24,30.07,29.77,0,0,0,0.00
2013-12-24,33.5,28.8,25.7,16.7,6.3,0.3,50,38,30,29.77,29.62,0,0,0,0.00
2013-12-26,40.5,32.6,28.1,25.6,20.2,-16.3,63,61,45,29.99,29.93,0,0,0,0.00
2013-12-27,58.7,39.7,27.0,33.0,23.6,8.9,62,53,32,30.00,29.73,6,0,6,0.00
2013-12-28,49.1,29.3,6.3,27.3,13.7,-2.0,68,53,32,30.11,29.68,7,0,7,0.00
2013-12-29,28.4,18.0,4.3,17.4,7.5,-3.9,70,63,50,30.09,29.72,0,0,0,0.00
2013-12-30,38.0,31.6,24.5,23.7,17.4,5.7,62,56,37,29.94,29.72,6,0,6,0.00
2013-12-31,37.8,29.4,20.9,24.8,14.6,-2.1,63,54,24,29.83,29.70,1,0,1,0.00
2014-1-1,27.7,25.3,21.2,15.1,8.4,-0.5,62,49,32,29.94,29.81,1,0,1,0.00